createdAt,value
2019-02-22T00:02:42.051Z,99.80
2019-02-22T00:05:24.465Z,99.90
2019-02-22T00:11:05.870Z,99.50
2019-02-22T00:13:47.674Z,99.80
2019-02-22T00:16:29.249Z,99.80
2019-02-22T00:19:11.697Z,99.80
2019-02-22T00:21:53.408Z,99.80
2019-02-22T00:24:35.472Z,99.90
2019-02-22T00:27:17.888Z,99.90
2019-02-22T00:29:59.866Z,99.90
2019-02-22T00:32:42.694Z,99.90
2019-02-22T00:35:24.960Z,99.90
2019-02-22T00:38:07.091Z,99.90
2019-02-22T00:40:48.869Z,99.90
2019-02-22T00:43:31.305Z,99.90
2019-02-22T00:46:13.281Z,99.90
2019-02-22T00:48:55.442Z,99.90
2019-02-22T00:51:37.644Z,99.90
2019-02-22T00:54:19.708Z,99.90
2019-02-22T00:57:01.860Z,99.90
2019-02-22T00:59:43.930Z,99.90
2019-02-22T01:02:25.655Z,99.90
2019-02-22T01:05:07.391Z,99.90
2019-02-22T01:07:49.400Z,99.90
2019-02-22T01:10:31.797Z,99.90
2019-02-22T01:13:13.962Z,99.90
2019-02-22T01:15:55.960Z,99.90
2019-02-22T01:18:37.924Z,99.90
2019-02-22T01:21:20.335Z,99.90
2019-02-22T01:24:02.358Z,99.90
2019-02-22T01:26:44.016Z,99.90
2019-02-22T01:29:24.449Z,99.90
2019-02-22T01:32:13.837Z,99.90
2019-02-22T01:35:03.209Z,99.90
2019-02-22T01:37:52.533Z,99.90
2019-02-22T01:40:44.086Z,99.90
2019-02-22T01:46:40.970Z,99.90
2019-02-22T01:49:30.359Z,99.90
2019-02-22T01:52:19.682Z,99.90
2019-02-22T01:55:08.971Z,99.90
2019-02-22T01:57:58.323Z,99.90
2019-02-22T02:00:47.622Z,99.90
2019-02-22T02:03:36.977Z,99.90
2019-02-22T02:06:26.288Z,99.90
2019-02-22T02:09:15.694Z,99.90
2019-02-22T02:11:57.853Z,99.90
2019-02-22T02:14:40.165Z,99.90
2019-02-22T02:17:22.070Z,99.90
2019-02-22T02:20:04.269Z,99.90
2019-02-22T02:22:46.083Z,99.90
2019-02-22T02:25:27.825Z,99.90
2019-02-22T02:28:09.632Z,99.90
2019-02-22T02:30:51.723Z,99.90
2019-02-22T02:33:33.381Z,99.90
2019-02-22T02:36:15.399Z,99.90
2019-02-22T02:38:57.168Z,99.90
2019-02-22T02:41:38.847Z,99.90
2019-02-22T02:44:21.058Z,99.90
2019-02-22T02:47:03.104Z,99.90
2019-02-22T02:49:45.019Z,99.90
2019-02-22T02:52:26.730Z,99.90
2019-02-22T02:55:09.087Z,99.90
2019-02-22T02:57:51.537Z,99.90
2019-02-22T03:00:33.700Z,99.90
2019-02-22T03:03:15.729Z,99.90
2019-02-22T03:06:02.886Z,99.90
2019-02-22T03:08:44.495Z,99.90
2019-02-22T03:11:26.778Z,99.90
2019-02-22T03:14:09.076Z,99.90
2019-02-22T03:16:51.410Z,99.90
2019-02-22T03:19:33.016Z,99.90
2019-02-22T03:22:14.865Z,99.90
2019-02-22T03:24:56.405Z,99.90
2019-02-22T03:27:38.766Z,99.90
2019-02-22T03:30:21.064Z,99.90
2019-02-22T03:33:03.624Z,99.90
2019-02-22T03:35:46.051Z,99.90
2019-02-22T03:38:28.352Z,99.90
2019-02-22T03:41:10.750Z,99.90
2019-02-22T03:43:52.683Z,99.90
2019-02-22T03:46:34.733Z,99.90
2019-02-22T03:49:16.817Z,99.90
2019-02-22T03:52:00.402Z,99.90
2019-02-22T03:54:42.524Z,99.90
2019-02-22T03:57:24.333Z,99.90
2019-02-22T04:00:06.549Z,99.90
2019-02-22T04:02:48.659Z,99.90
2019-02-22T04:05:30.762Z,99.90
2019-02-22T04:08:12.971Z,99.90
2019-02-22T04:10:55.139Z,99.90
2019-02-22T04:13:37.409Z,99.90
2019-02-22T04:16:19.748Z,99.90
2019-02-22T04:19:02.013Z,99.90
2019-02-22T04:21:43.456Z,99.90
2019-02-22T04:24:25.625Z,99.90
2019-02-22T04:27:07.708Z,99.90
2019-02-22T04:29:49.789Z,99.90
2019-02-22T04:32:32.063Z,99.90
2019-02-22T04:41:13.048Z,99.90
2019-02-22T04:43:54.837Z,99.90
2019-02-22T04:46:36.709Z,99.90
2019-02-22T04:49:18.297Z,99.90
2019-02-22T04:52:00.823Z,99.90
2019-02-22T04:54:42.352Z,99.90
2019-02-22T05:00:57.773Z,99.90
2019-02-22T05:03:39.545Z,99.90
2019-02-22T05:06:21.539Z,99.90
2019-02-22T05:09:04.488Z,99.90
2019-02-22T05:11:46.942Z,99.90
2019-02-22T05:14:28.919Z,99.90
2019-02-22T05:17:11.017Z,99.90
2019-02-22T05:19:52.506Z,99.90
2019-02-22T05:22:34.424Z,99.90
2019-02-22T05:25:16.855Z,99.90
2019-02-22T05:27:59.087Z,99.90
2019-02-22T05:30:40.877Z,99.90
2019-02-22T05:33:22.821Z,99.90
2019-02-22T05:36:05.292Z,99.90
2019-02-22T05:38:47.557Z,99.90
2019-02-22T05:41:29.472Z,99.90
2019-02-22T05:44:11.290Z,99.90
2019-02-22T05:47:00.300Z,99.90
2019-02-22T05:49:37.722Z,99.90
2019-02-22T05:52:19.785Z,99.90
2019-02-22T05:55:01.658Z,99.90
2019-02-22T05:57:45.755Z,99.90
2019-02-22T06:00:27.770Z,99.90
2019-02-22T06:03:09.786Z,99.90
2019-02-22T06:05:52.110Z,99.90
2019-02-22T06:08:34.090Z,99.90
2019-02-22T06:11:16.502Z,99.90
2019-02-22T06:16:58.106Z,99.90
2019-02-22T06:19:40.375Z,99.90
2019-02-22T06:25:55.656Z,99.90
2019-02-22T06:28:37.285Z,99.90
2019-02-22T06:31:19.622Z,99.90
2019-02-22T06:34:01.798Z,99.90
2019-02-22T06:36:43.899Z,99.90
2019-02-22T06:39:26.115Z,99.90
2019-02-22T06:42:08.209Z,99.90
2019-02-22T06:44:50.036Z,99.90
2019-02-22T06:47:32.387Z,99.90
2019-02-22T06:50:14.614Z,99.90
2019-02-22T06:52:56.495Z,99.90
2019-02-22T06:55:38.473Z,99.90
2019-02-22T06:58:20.347Z,99.90
2019-02-22T07:04:00.861Z,99.90
2019-02-22T07:06:43.188Z,99.90
2019-02-22T07:09:24.843Z,99.90
2019-02-22T07:12:13.717Z,99.90
2019-02-22T07:14:55.505Z,99.90
2019-02-22T07:17:37.516Z,99.90
2019-02-22T07:20:20.094Z,99.90
2019-02-22T07:23:03.974Z,99.90
2019-02-22T07:25:46.388Z,99.90
2019-02-22T07:28:28.662Z,99.90
2019-02-22T07:31:10.838Z,99.90
2019-02-22T07:33:53.247Z,99.90
2019-02-22T07:36:34.849Z,99.90
2019-02-22T07:39:27.454Z,99.90
2019-02-22T07:42:00.517Z,99.90
2019-02-22T07:44:42.399Z,99.90
2019-02-22T07:47:24.686Z,99.90
2019-02-22T07:53:40.126Z,99.90
2019-02-22T07:56:23.364Z,99.90
2019-02-22T07:59:07.301Z,99.90
2019-02-22T08:01:51.842Z,99.90
2019-02-22T08:04:37.531Z,99.90
2019-02-22T08:07:21.733Z,99.90
2019-02-22T08:10:05.197Z,99.90
2019-02-22T08:12:49.062Z,99.90
2019-02-22T08:15:35.343Z,99.90
2019-02-22T08:18:17.802Z,99.90
2019-02-22T08:21:01.464Z,99.90
2019-02-22T08:23:45.090Z,99.90
2019-02-22T08:26:28.306Z,99.90
2019-02-22T08:29:00.307Z,99.90
2019-02-22T08:31:59.034Z,99.90
2019-02-22T08:34:50.006Z,99.90
2019-02-22T08:37:41.020Z,99.90
2019-02-22T08:40:32.043Z,99.90
2019-02-22T08:43:31.095Z,99.90
2019-02-22T08:46:33.583Z,99.90
2019-02-22T08:49:24.578Z,99.90
2019-02-22T08:52:15.609Z,99.90
2019-02-22T08:55:05.007Z,99.90
2019-02-22T08:57:54.658Z,99.90
2019-02-22T09:01:04.893Z,99.90
2019-02-22T09:03:53.802Z,99.90
2019-02-22T09:06:43.129Z,99.90
2019-02-22T09:09:32.580Z,99.90
2019-02-22T09:12:15.392Z,99.90
2019-02-22T09:14:57.450Z,99.90
2019-02-22T09:17:39.874Z,99.90
2019-02-22T09:20:21.740Z,99.90
2019-02-22T09:23:03.299Z,99.90
2019-02-22T09:25:45.393Z,99.90
2019-02-22T09:28:27.883Z,99.90
2019-02-22T09:31:09.966Z,99.90
2019-02-22T09:33:52.108Z,99.90
2019-02-22T09:36:34.241Z,99.90
2019-02-22T09:39:16.406Z,99.90
2019-02-22T09:41:58.298Z,99.90
2019-02-22T09:44:40.507Z,99.90
2019-02-22T09:47:22.770Z,99.90
2019-02-22T09:50:04.777Z,99.90
2019-02-22T09:52:46.992Z,99.90
2019-02-22T09:55:28.917Z,99.90
2019-02-22T09:58:10.496Z,99.90
2019-02-22T10:00:52.789Z,99.90
2019-02-22T10:03:34.913Z,99.90
2019-02-22T10:06:17.146Z,99.90
2019-02-22T10:08:59.000Z,99.90
2019-02-22T10:11:40.119Z,99.90
2019-02-22T10:14:22.259Z,99.90
2019-02-22T10:17:04.299Z,99.90
2019-02-22T10:19:45.984Z,99.90
2019-02-22T10:25:28.108Z,99.90
2019-02-22T10:28:17.375Z,99.90
2019-02-22T10:30:52.047Z,99.90
2019-02-22T10:36:30.127Z,99.90
2019-02-22T10:42:08.166Z,99.90
2019-02-22T10:44:57.592Z,99.90
2019-02-22T10:47:46.972Z,99.90
2019-02-22T10:50:36.333Z,99.90
2019-02-22T10:53:25.737Z,99.90
2019-02-22T10:56:15.104Z,99.90
2019-02-22T10:59:04.482Z,99.90
2019-02-22T11:01:53.844Z,99.90
2019-02-22T11:04:43.357Z,99.90
2019-02-22T11:07:32.657Z,99.20
2019-02-22T11:10:22.072Z,98.70
2019-02-22T11:13:11.602Z,98.50
2019-02-22T11:16:20.385Z,98.30
2019-02-22T11:19:09.786Z,98.60
2019-02-22T11:21:59.247Z,98.70
2019-02-22T11:24:48.645Z,99.00
2019-02-22T11:31:19.694Z,98.50
2019-02-22T11:34:09.088Z,98.70
2019-02-22T11:36:58.401Z,98.60
2019-02-22T11:39:47.793Z,98.40
2019-02-22T11:42:37.153Z,98.60
2019-02-22T11:45:26.543Z,98.10
2019-02-22T11:48:15.942Z,98.90
2019-02-22T11:51:05.386Z,96.20
2019-02-22T11:53:54.778Z,96.10
2019-02-22T11:56:44.173Z,96.50
2019-02-22T11:59:33.537Z,95.90
2019-02-22T12:02:22.922Z,96.50
2019-02-22T12:05:12.377Z,95.90
2019-02-22T12:08:03.629Z,94.30
2019-02-22T12:11:12.299Z,94.00
2019-02-22T12:14:01.666Z,93.90
2019-02-22T12:16:51.049Z,94.00
2019-02-22T12:19:40.440Z,94.30
2019-02-22T12:22:22.433Z,95.10
2019-02-22T12:25:04.142Z,95.60
2019-02-22T12:27:46.510Z,95.10
2019-02-22T12:30:28.475Z,95.40
2019-02-22T12:33:10.890Z,95.70
2019-02-22T12:35:51.366Z,95.10
2019-02-22T12:38:40.749Z,94.20
2019-02-22T12:41:30.121Z,94.60
2019-02-22T12:44:19.513Z,94.60
2019-02-22T12:47:08.891Z,94.40
2019-02-22T12:49:58.245Z,94.80
2019-02-22T12:52:47.641Z,94.50
2019-02-22T12:55:37.062Z,95.20
2019-02-22T12:58:26.358Z,95.00
2019-02-22T13:01:15.733Z,95.60
2019-02-22T13:04:05.185Z,95.20
2019-02-22T13:06:54.475Z,96.00
2019-02-22T13:09:43.849Z,95.80
2019-02-22T13:12:33.236Z,96.20
2019-02-22T13:15:22.599Z,95.50
2019-02-22T13:18:11.994Z,95.20
2019-02-22T13:21:01.349Z,95.30
2019-02-22T13:23:43.221Z,94.60
2019-02-22T13:26:25.214Z,94.90
2019-02-22T13:29:07.482Z,94.30
2019-02-22T13:31:49.518Z,94.70
2019-02-22T13:34:31.601Z,94.80
2019-02-22T13:37:13.585Z,95.30
2019-02-22T13:39:55.646Z,95.10
2019-02-22T13:42:38.219Z,95.30
2019-02-22T13:45:26.533Z,94.40
2019-02-22T13:48:03.660Z,94.40
2019-02-22T13:50:45.401Z,93.70
2019-02-22T13:53:27.669Z,94.10
2019-02-22T13:56:10.139Z,93.60
2019-02-22T13:58:51.965Z,94.20
2019-02-22T14:01:33.610Z,94.10
2019-02-22T14:04:15.994Z,94.10
2019-02-22T14:06:57.966Z,94.20
2019-02-22T14:09:39.782Z,94.80
2019-02-22T14:12:21.298Z,94.20
2019-02-22T14:15:03.683Z,94.40
2019-02-22T14:17:46.115Z,94.70
2019-02-22T14:20:28.497Z,94.90
2019-02-22T14:23:10.835Z,94.70
2019-02-22T14:25:52.917Z,94.90
2019-02-22T14:28:34.873Z,95.00
2019-02-22T14:31:16.597Z,95.10
2019-02-22T14:33:58.747Z,95.10
2019-02-22T14:36:41.200Z,94.90
2019-02-22T14:39:24.017Z,95.00
2019-02-22T14:42:06.899Z,95.20
2019-02-22T14:44:49.504Z,94.80
2019-02-22T14:47:31.415Z,94.50
2019-02-22T14:50:13.874Z,93.70
2019-02-22T14:52:55.834Z,93.70
2019-02-22T14:55:37.869Z,93.50
2019-02-22T14:58:19.857Z,93.50
2019-02-22T15:01:02.270Z,93.60
2019-02-22T15:03:44.453Z,93.60
2019-02-22T15:06:25.999Z,93.70
2019-02-22T15:09:08.362Z,93.50
2019-02-22T15:11:50.773Z,93.20
2019-02-22T15:14:32.283Z,93.30
2019-02-22T15:17:39.693Z,93.30
2019-02-22T15:20:21.884Z,93.30
2019-02-22T15:23:03.568Z,92.90
2019-02-22T15:25:45.482Z,92.90
2019-02-22T15:28:27.697Z,92.70
2019-02-22T15:31:09.580Z,92.70
2019-02-22T15:33:51.990Z,92.20
2019-02-22T15:36:34.249Z,92.10
2019-02-22T15:39:16.328Z,92.10
2019-02-22T15:41:58.337Z,92.00
2019-02-22T15:44:40.673Z,91.90
2019-02-22T15:47:22.975Z,92.00
2019-02-22T15:50:05.289Z,91.80
2019-02-22T15:52:48.200Z,91.90
2019-02-22T15:55:30.314Z,92.00
2019-02-22T15:58:12.249Z,92.00
2019-02-22T16:00:54.047Z,92.30
2019-02-22T16:03:54.589Z,91.90
2019-02-22T16:06:36.957Z,92.30
2019-02-22T16:09:19.364Z,92.40
2019-02-22T16:12:01.120Z,92.20
2019-02-22T16:14:43.340Z,92.30
2019-02-22T16:17:25.749Z,92.40
2019-02-22T16:20:07.767Z,92.60
2019-02-22T16:22:51.470Z,92.60
2019-02-22T16:25:33.448Z,92.70
2019-02-22T16:28:15.887Z,93.20
2019-02-22T16:30:57.715Z,93.00
2019-02-22T16:33:39.409Z,93.30
2019-02-22T16:36:22.037Z,93.50
2019-02-22T16:39:04.910Z,93.70
2019-02-22T16:41:46.727Z,93.80
2019-02-22T16:44:28.877Z,94.00
2019-02-22T16:47:10.784Z,94.00
2019-02-22T16:49:53.061Z,94.30
2019-02-22T16:52:35.463Z,94.40
2019-02-22T16:55:18.002Z,94.60
2019-02-22T16:58:00.016Z,94.60
2019-02-22T17:00:42.006Z,94.80
2019-02-22T17:03:24.076Z,95.00
2019-02-22T17:06:05.729Z,95.50
2019-02-22T17:08:47.830Z,95.20
2019-02-22T17:11:29.906Z,95.00
2019-02-22T17:14:11.682Z,95.50
2019-02-22T17:16:53.869Z,95.40
2019-02-22T17:19:35.575Z,95.70
2019-02-22T17:22:17.613Z,95.70
2019-02-22T17:24:59.949Z,95.90
2019-02-22T17:27:42.022Z,96.00
2019-02-22T17:30:23.665Z,96.40
2019-02-22T17:33:06.175Z,96.70
2019-02-22T17:35:49.246Z,96.90
2019-02-22T17:38:31.517Z,97.00
2019-02-22T17:41:13.436Z,97.70
2019-02-22T17:43:55.922Z,97.50
2019-02-22T17:50:09.955Z,97.30
2019-02-22T17:52:51.789Z,97.60
2019-02-22T17:55:34.238Z,97.60
2019-02-22T17:58:23.981Z,97.50
2019-02-22T18:01:00.325Z,97.60
2019-02-22T18:03:43.218Z,97.70
2019-02-22T18:06:25.156Z,97.80
2019-02-22T18:09:08.442Z,98.00
2019-02-22T18:11:50.004Z,98.00
2019-02-22T18:14:32.164Z,98.00
2019-02-22T18:17:14.088Z,97.90
2019-02-22T18:19:56.177Z,97.90
2019-02-22T18:22:38.073Z,97.90
2019-02-22T18:25:20.451Z,98.10
2019-02-22T18:28:02.642Z,98.10
2019-02-22T18:30:45.149Z,98.30
2019-02-22T18:33:27.040Z,98.20
2019-02-22T18:36:09.012Z,98.40
2019-02-22T18:38:51.485Z,98.40
2019-02-22T18:41:33.321Z,98.70
2019-02-22T18:44:15.486Z,98.80
2019-02-22T18:46:57.383Z,98.90
2019-02-22T18:49:39.323Z,98.80
2019-02-22T18:52:21.145Z,98.70
2019-02-22T18:55:03.045Z,98.70
2019-02-22T18:57:45.225Z,98.90
2019-02-22T19:00:27.078Z,98.60
2019-02-22T19:03:08.646Z,98.80
2019-02-22T19:05:50.907Z,98.80
2019-02-22T19:08:32.873Z,99.10
2019-02-22T19:11:14.696Z,99.40
2019-02-22T19:13:57.106Z,99.50
2019-02-22T19:16:39.062Z,99.50
2019-02-22T19:19:21.096Z,99.60
2019-02-22T19:25:03.198Z,99.50
2019-02-22T19:27:46.602Z,99.70
2019-02-22T19:30:28.414Z,99.70
2019-02-22T19:33:10.403Z,99.70
2019-02-22T19:39:25.958Z,99.90
2019-02-22T19:42:06.504Z,99.90
2019-02-22T19:44:36.712Z,99.90
2019-02-22T19:50:41.945Z,99.90
2019-02-22T19:53:31.333Z,99.90
2019-02-22T19:56:20.720Z,99.90
2019-02-22T19:59:10.093Z,99.90
2019-02-22T20:01:59.517Z,99.90
2019-02-22T20:08:37.264Z,99.90
2019-02-22T20:11:26.650Z,99.90
2019-02-22T20:14:16.074Z,99.90
2019-02-22T20:17:05.447Z,99.90
2019-02-22T20:19:54.845Z,99.90
2019-02-22T20:22:37.325Z,99.90
2019-02-22T20:25:19.342Z,99.90
2019-02-22T20:28:01.055Z,99.90
2019-02-22T20:30:42.948Z,99.90
2019-02-22T20:33:25.366Z,99.90
2019-02-22T20:36:07.514Z,99.90
2019-02-22T20:38:49.950Z,99.90
2019-02-22T20:41:32.268Z,99.90
2019-02-22T20:44:13.871Z,99.90
2019-02-22T20:50:27.772Z,99.90
2019-02-22T20:53:09.462Z,99.90
2019-02-22T20:55:51.628Z,99.90
2019-02-22T20:58:33.963Z,99.90
2019-02-22T21:01:16.112Z,99.90
2019-02-22T21:03:58.100Z,99.90
2019-02-22T21:06:40.136Z,99.90
2019-02-22T21:09:22.354Z,99.90
2019-02-22T21:12:04.331Z,99.90
2019-02-22T21:14:46.344Z,99.90
2019-02-22T21:17:28.325Z,99.90
2019-02-22T21:20:10.667Z,99.90
2019-02-22T21:22:54.691Z,99.90
2019-02-22T21:25:36.745Z,99.90
2019-02-22T21:28:18.832Z,99.90
2019-02-22T21:31:00.506Z,99.90
2019-02-22T21:33:42.437Z,99.90
2019-02-22T21:36:24.622Z,99.90
2019-02-22T21:39:06.501Z,99.90
2019-02-22T21:41:48.541Z,99.90
2019-02-22T21:44:30.750Z,99.90
2019-02-22T21:47:12.354Z,99.90
2019-02-22T21:49:53.925Z,99.90
2019-02-22T21:52:36.259Z,99.90
2019-02-22T21:55:18.176Z,99.90
2019-02-22T21:58:00.228Z,99.90
2019-02-22T22:00:42.373Z,99.90
2019-02-22T22:06:23.279Z,99.90
2019-02-22T22:09:05.381Z,99.90
2019-02-22T22:11:47.525Z,99.90
2019-02-22T22:14:29.939Z,99.90
2019-02-22T22:17:11.954Z,99.90
2019-02-22T22:19:54.026Z,99.90
2019-02-22T22:22:35.948Z,99.90
2019-02-22T22:28:51.103Z,99.90
2019-02-22T22:31:32.917Z,99.90
2019-02-22T22:34:15.212Z,99.90
2019-02-22T22:36:56.789Z,99.90
2019-02-22T22:39:38.537Z,99.90
2019-02-22T22:42:20.593Z,99.90
2019-02-22T22:45:02.707Z,99.90
2019-02-22T22:47:44.305Z,99.90
2019-02-22T22:50:25.911Z,99.90
2019-02-22T22:53:07.860Z,99.90
2019-02-22T22:55:49.773Z,99.90
2019-02-22T22:58:31.586Z,99.90
2019-02-22T23:01:24.829Z,99.90
2019-02-22T23:04:07.009Z,99.90
2019-02-22T23:06:49.237Z,99.90
2019-02-22T23:09:31.551Z,99.90
2019-02-22T23:12:13.186Z,99.90
2019-02-22T23:14:55.510Z,99.90
2019-02-22T23:21:09.727Z,99.90
2019-02-22T23:23:51.870Z,99.90
2019-02-22T23:26:33.617Z,99.90
2019-02-22T23:29:15.856Z,99.90
2019-02-22T23:31:57.755Z,99.90
2019-02-22T23:34:40.118Z,99.90
2019-02-22T23:37:21.938Z,99.90
2019-02-22T23:40:03.699Z,99.90
2019-02-22T23:42:45.849Z,99.90
2019-02-22T23:45:28.219Z,99.90
2019-02-22T23:48:10.396Z,99.90
2019-02-22T23:50:52.262Z,99.90
2019-02-22T23:53:34.053Z,99.90
2019-02-22T23:56:15.949Z,99.90
2019-02-22T23:58:57.982Z,99.90
